Bei uns kannst du mitfliegen! Besuche uns und lerne uns kennen - als Gast, Pilot oder jemand der es werden möchte.

Kölner Klub für Luftsport e.V.

KKFL.de

Ausbildung – Fliegen – Abenteuer

Ausbildung im KKFL

Ausbildung

Fliegen lernen im Verein
Der KKFL.de bietet eine effiziente, schnelle Ausbildung zur Pivatpilotenlizenz (PPL) in verschiedenen Ausprägungen an. Nach der Ausbildung können diverse Ergänzungen vom Verstellpropeller bis hin zu Nachtflug oder das Fliegen nach Instrumentenflugregeln (IFR) angeschlossen werden.
Fliegen im Verein ist günstig!

Unsere Flotte

Cessna 172 S

D-EOCD
Die Cessna ist als schnelle Schul- und Reisemaschine gleichsam beliebt. Unsere vereins-eigene Flotte sorgt für Abwechlung bei den Piloten und unsere Werft senkt Kosten. In der Ausbildung dürfen Schüler über 'ihre Maschine' mit entscheiden.

Cessna 172 R

D-EFPB

2 x Piper PA 28 II

D-EFPA / D-ELFF

Aquila A210

D-EAQJ

Diamond DA 40

D-EKKL

Flugplatz Hangelar


[Quelle: ADDS]
METAR
EDDK 190620Z 14004KT 100V170 CAVOK M04/M07 Q1018 NOSIG =
EDDK 190500Z 1906/2012 10005KT CAVOK BECMG 1908/1910 10010KT BECMG 1915/1917 10005KT
TAF
EDDK 190500Z 1906/2012 10005KT CAVOK BECMG 1908/1910 10010KT BECMG 1915/1917 10005KT =
SR / SS: 07:23 / 16:00 UTC (EDKB 2019-01-19)

Links und Partner

Du willst fliegen?

Während unserer Bürozeiten und auch dazwischen sind wir für deine Fragen da.
Bitte kontaktiere den Verein unter den angegebenen Adressen.
[Quelle: ADDS]
METAR
EDDK 190620Z 14004KT 100V170 CAVOK M04/M07 Q1018 NOSIG =
EDDK 190500Z 1906/2012 10005KT CAVOK BECMG 1908/1910 10010KT BECMG 1915/1917 10005KT
TAF
EDDK 190500Z 1906/2012 10005KT CAVOK BECMG 1908/1910 10010KT BECMG 1915/1917 10005KT =
SR / SS: 07:23 / 16:00 UTC (EDKB 2019-01-19)
© 2018 - Kölner Klub für Luftsport e.V.
Bonn / Hangelar - EDKB - Germany